Startpagina
METAR-TAF:

METAR-TAF

Vliegvelden :

Aérodrome de Pontoise-Cormeilles-en-Vexin

Pontoise, Frankrijk

breedte: 49-05-48N, lengte: 002-02-27E, hoogte: 99 m

Actueel weer

Dit bericht is 37 minuten geleden gemaakt, om 12:00 UTC
Wind 4 kt uit het noorden, variërend tussen het westnoordwesten en het oostnoordoosten
Temperatuur 21°C
Vochtigheid 56%
Druk 1012 hPa
Zicht 10 km of meer
Weinig wolken op 4800 ft
Verspreide wolken op 6600 ft

METAR: LFPT 211200Z AUTO 01004KT 290V060 9999 FEW048 SCT066 21/12 Q1012

Tijdstip: 14:37 (12:37 UTC)


TAF: ontbreekt

Waarnemingen en weersverwachtingen van meer dan 4000 vliegvelden (METAR en TAF).

De beschikbare stations zijn de gele en rode punten op de kaart.

Ga met uw muis naar het station om de naam te zien.

Klik dan om waarnemingen en weersverwachtingen te zien.

kaart wijzigen: klik op de groene knoppen met een zwart kruis om in te zoomen, op de groene knop met een streepje om uit te zoomen of op de groene pijlen voor aangrenzende kaarten.


METAR-TAF: